Weather at Bogashevo Airport

Public forecast

Using degrees Celsius for public forecast. Weather courtesy of forecast.io.

Current aviation weather report (METAR) for Bogashevo Airport

2024/07/19 21:30 (retrieved 26 minutes ago)

UNTT 192130Z 21004MPS CAVOK 18/18 Q0997 R21/290250 NOSIG RMK QFE733

Closest aviation forecast (TAF) to Bogashevo Airport

Closest forecast is Kemerovo Airport, 73.2 nm (135.6 km) SSE.

2024/07/19 21:21 (retrieved 35 minutes ago)

TAF UNEE 192000Z 1921/2021 17003G08MPS 8000 BKN040CB TX26/2009Z TN17/1921Z TEMPO 1921/2002 0500 -TSRA FG BKN001 BKN011CB BECMG 1923/2002 22003G08MPS TEMPO 2002/2009 27006G15MPS -TSRA BKN016CB BECMG 2012/2015 14003G08MPS